sensor_id;sensor_type;location;lat;lon;timestamp;pressure;altitude;pressure_sealevel;temperature;humidity
40730;BME280;26418;50.070;8.436;2023-04-03T00:00:15;101055.34;;;4.49;66.38
40730;BME280;26418;50.070;8.436;2023-04-03T00:02:41;101042.88;;;4.43;66.78
40730;BME280;26418;50.070;8.436;2023-04-03T00:05:07;101054.53;;;4.49;66.40
40730;BME280;26418;50.070;8.436;2023-04-03T00:07:33;101051.72;;;4.44;66.46
40730;BME280;26418;50.070;8.436;2023-04-03T00:09:58;101047.56;;;4.48;66.54
40730;BME280;26418;50.070;8.436;2023-04-03T00:12:24;101050.22;;;4.48;66.46
40730;BME280;26418;50.070;8.436;2023-04-03T00:14:49;101049.03;;;4.44;66.77
40730;BME280;26418;50.070;8.436;2023-04-03T00:17:15;101054.75;;;4.47;66.95
40730;BME280;26418;50.070;8.436;2023-04-03T00:19:40;101050.69;;;4.45;67.31
40730;BME280;26418;50.070;8.436;2023-04-03T00:22:06;101053.13;;;4.46;67.98
40730;BME280;26418;50.070;8.436;2023-04-03T00:24:32;101048.25;;;4.43;68.20
40730;BME280;26418;50.070;8.436;2023-04-03T00:26:57;101052.91;;;4.48;68.52
40730;BME280;26418;50.070;8.436;2023-04-03T00:29:23;101059.41;;;4.52;68.19
40730;BME280;26418;50.070;8.436;2023-04-03T00:31:49;101055.09;;;4.51;68.36
40730;BME280;26418;50.070;8.436;2023-04-03T00:34:14;101050.44;;;4.46;68.21
40730;BME280;26418;50.070;8.436;2023-04-03T00:36:40;101061.06;;;4.53;67.49
40730;BME280;26418;50.070;8.436;2023-04-03T00:39:06;101052.31;;;4.46;67.30
40730;BME280;26418;50.070;8.436;2023-04-03T00:41:31;101060.34;;;4.46;65.85
40730;BME280;26418;50.070;8.436;2023-04-03T00:43:57;101057.31;;;4.42;66.60
40730;BME280;26418;50.070;8.436;2023-04-03T00:46:23;101048.94;;;4.38;65.74
40730;BME280;26418;50.070;8.436;2023-04-03T00:48:49;101053.59;;;4.43;66.10
40730;BME280;26418;50.070;8.436;2023-04-03T00:51:33;101051.97;;;4.42;65.69
40730;BME280;26418;50.070;8.436;2023-04-03T00:54:02;101059.41;;;4.40;65.73
40730;BME280;26418;50.070;8.436;2023-04-03T00:56:30;101057.78;;;4.39;66.48
40730;BME280;26418;50.070;8.436;2023-04-03T00:59:18;101055.69;;;4.41;66.68
40730;BME280;26418;50.070;8.436;2023-04-03T01:01:47;101058.72;;;4.45;66.44
40730;BME280;26418;50.070;8.436;2023-04-03T01:04:34;101058.47;;;4.46;66.51
40730;BME280;26418;50.070;8.436;2023-04-03T01:07:05;101063.97;;;4.51;66.49
40730;BME280;26418;50.070;8.436;2023-04-03T01:09:32;101063.13;;;4.51;66.77
40730;BME280;26418;50.070;8.436;2023-04-03T01:12:22;101063.72;;;4.53;66.79
40730;BME280;26418;50.070;8.436;2023-04-03T01:14:52;101073.84;;;4.51;66.28
40730;BME280;26418;50.070;8.436;2023-04-03T01:25:10;101074.44;;;4.53;66.00
40730;BME280;26418;50.070;8.436;2023-04-03T01:27:36;101060.94;;;4.48;65.36
40730;BME280;26418;50.070;8.436;2023-04-03T01:30:02;101059.06;;;4.48;65.75
40730;BME280;26418;50.070;8.436;2023-04-03T01:32:27;101065.13;;;4.44;65.22
40730;BME280;26418;50.070;8.436;2023-04-03T01:34:53;101065.59;;;4.40;65.05
40730;BME280;26418;50.070;8.436;2023-04-03T01:37:19;101073.16;;;4.44;65.42
40730;BME280;26418;50.070;8.436;2023-04-03T01:39:52;101060.34;;;4.34;65.62
40730;BME280;26418;50.070;8.436;2023-04-03T01:42:18;101066.50;;;4.34;65.98
40730;BME280;26418;50.070;8.436;2023-04-03T01:44:43;101076.06;;;4.42;66.15
40730;BME280;26418;50.070;8.436;2023-04-03T01:47:10;101061.72;;;4.36;66.07
40730;BME280;26418;50.070;8.436;2023-04-03T01:49:35;101064.41;;;4.36;65.98
40730;BME280;26418;50.070;8.436;2023-04-03T01:52:01;101067.78;;;4.44;66.31
40730;BME280;26418;50.070;8.436;2023-04-03T01:54:26;101071.50;;;4.43;66.36
40730;BME280;26418;50.070;8.436;2023-04-03T01:56:52;101070.13;;;4.40;66.40
40730;BME280;26418;50.070;8.436;2023-04-03T01:59:17;101072.44;;;4.36;66.63
40730;BME280;26418;50.070;8.436;2023-04-03T02:01:44;101059.38;;;4.28;67.25
40730;BME280;26418;50.070;8.436;2023-04-03T02:04:11;101055.66;;;4.29;67.34
40730;BME280;26418;50.070;8.436;2023-04-03T02:06:37;101058.47;;;4.34;67.13
40730;BME280;26418;50.070;8.436;2023-04-03T02:09:03;101066.63;;;4.39;68.03
40730;BME280;26418;50.070;8.436;2023-04-03T02:11:29;101063.28;;;4.44;68.08
40730;BME280;26418;50.070;8.436;2023-04-03T02:13:55;101062.69;;;4.42;67.81
40730;BME280;26418;50.070;8.436;2023-04-03T02:16:21;101063.47;;;4.43;68.48
40730;BME280;26418;50.070;8.436;2023-04-03T02:18:47;101060.69;;;4.37;68.35
40730;BME280;26418;50.070;8.436;2023-04-03T02:21:13;101062.31;;;4.38;68.37
40730;BME280;26418;50.070;8.436;2023-04-03T02:23:39;101058.09;;;4.31;68.58
40730;BME280;26418;50.070;8.436;2023-04-03T02:26:07;101051.00;;;4.24;68.88
40730;BME280;26418;50.070;8.436;2023-04-03T02:28:34;101058.94;;;4.31;68.99
40730;BME280;26418;50.070;8.436;2023-04-03T02:30:59;101067.31;;;4.35;68.85
40730;BME280;26418;50.070;8.436;2023-04-03T02:33:25;101053.22;;;4.28;69.02
40730;BME280;26418;50.070;8.436;2023-04-03T02:35:55;101055.91;;;4.28;68.80
40730;BME280;26418;50.070;8.436;2023-04-03T02:38:23;101071.50;;;4.31;69.07
40730;BME280;26418;50.070;8.436;2023-04-03T02:40:49;101063.00;;;4.22;69.54
40730;BME280;26418;50.070;8.436;2023-04-03T02:43:15;101047.13;;;4.20;70.03
40730;BME280;26418;50.070;8.436;2023-04-03T02:45:40;101069.50;;;4.26;70.68
40730;BME280;26418;50.070;8.436;2023-04-03T02:48:06;101070.19;;;4.21;70.79
40730;BME280;26418;50.070;8.436;2023-04-03T02:50:32;101070.66;;;4.18;71.29
40730;BME280;26418;50.070;8.436;2023-04-03T02:52:57;101078.22;;;4.21;71.90
40730;BME280;26418;50.070;8.436;2023-04-03T02:55:23;101069.97;;;4.23;72.11
40730;BME280;26418;50.070;8.436;2023-04-03T02:57:48;101082.69;;;4.28;71.88
40730;BME280;26418;50.070;8.436;2023-04-03T03:00:14;101069.97;;;4.23;72.26
40730;BME280;26418;50.070;8.436;2023-04-03T03:02:40;101069.97;;;4.23;72.01
40730;BME280;26418;50.070;8.436;2023-04-03T03:05:06;101070.34;;;4.27;72.18
40730;BME280;26418;50.070;8.436;2023-04-03T03:07:32;101065.53;;;4.17;72.14
40730;BME280;26418;50.070;8.436;2023-04-03T03:09:58;101056.91;;;4.15;72.18
40730;BME280;26418;50.070;8.436;2023-04-03T03:12:24;101077.28;;;4.16;71.81
40730;BME280;26418;50.070;8.436;2023-04-03T03:14:50;101068.41;;;4.03;72.24
40730;BME280;26418;50.070;8.436;2023-04-03T03:17:16;101081.91;;;4.08;72.25
40730;BME280;26418;50.070;8.436;2023-04-03T03:19:43;101060.00;;;4.00;72.58
40730;BME280;26418;50.070;8.436;2023-04-03T03:22:09;101078.06;;;4.04;72.20
40730;BME280;26418;50.070;8.436;2023-04-03T03:24:34;101077.47;;;4.02;71.35
40730;BME280;26418;50.070;8.436;2023-04-03T03:27:00;101067.31;;;3.92;71.18
40730;BME280;26418;50.070;8.436;2023-04-03T03:29:26;101074.44;;;3.99;69.70
40730;BME280;26418;50.070;8.436;2023-04-03T03:31:51;101081.28;;;3.94;68.85
40730;BME280;26418;50.070;8.436;2023-04-03T03:34:17;101080.16;;;4.02;67.96
40730;BME280;26418;50.070;8.436;2023-04-03T03:36:43;101084.78;;;3.95;67.45
40730;BME280;26418;50.070;8.436;2023-04-03T03:39:09;101079.38;;;3.83;67.52
40730;BME280;26418;50.070;8.436;2023-04-03T03:41:35;101068.63;;;3.71;67.88
40730;BME280;26418;50.070;8.436;2023-04-03T03:44:01;101077.69;;;3.70;67.33
40730;BME280;26418;50.070;8.436;2023-04-03T03:46:29;101086.22;;;3.79;67.07
40730;BME280;26418;50.070;8.436;2023-04-03T03:48:55;101080.63;;;3.69;66.45
40730;BME280;26418;50.070;8.436;2023-04-03T03:51:21;101081.84;;;3.66;66.97
40730;BME280;26418;50.070;8.436;2023-04-03T03:53:46;101072.06;;;3.60;67.98
40730;BME280;26418;50.070;8.436;2023-04-03T03:56:12;101076.00;;;3.57;67.67
40730;BME280;26418;50.070;8.436;2023-04-03T03:58:38;101076.44;;;3.54;67.29
40730;BME280;26418;50.070;8.436;2023-04-03T04:01:04;101086.47;;;3.59;66.95
40730;BME280;26418;50.070;8.436;2023-04-03T04:03:33;101080.81;;;3.49;66.13
40730;BME280;26418;50.070;8.436;2023-04-03T04:05:59;101095.25;;;3.48;66.18
40730;BME280;26418;50.070;8.436;2023-04-03T04:08:24;101081.06;;;3.28;66.98
40730;BME280;26418;50.070;8.436;2023-04-03T04:10:50;101088.88;;;3.30;67.75
40730;BME280;26418;50.070;8.436;2023-04-03T04:13:16;101085.91;;;3.20;68.67
40730;BME280;26418;50.070;8.436;2023-04-03T04:15:42;101095.25;;;3.29;68.16
40730;BME280;26418;50.070;8.436;2023-04-03T04:18:08;101086.88;;;3.25;67.56
40730;BME280;26418;50.070;8.436;2023-04-03T04:20:34;101094.44;;;3.28;67.65
40730;BME280;26418;50.070;8.436;2023-04-03T04:23:00;101097.09;;;3.28;67.86
40730;BME280;26418;50.070;8.436;2023-04-03T04:25:25;101101.78;;;3.33;67.46
40730;BME280;26418;50.070;8.436;2023-04-03T04:27:52;101094.16;;;3.18;67.43
40730;BME280;26418;50.070;8.436;2023-04-03T04:30:17;101098.84;;;3.23;67.80
40730;BME280;26418;50.070;8.436;2023-04-03T04:32:43;101095.69;;;3.07;67.41
40730;BME280;26418;50.070;8.436;2023-04-03T04:35:09;101098.63;;;2.99;67.61
40730;BME280;26418;50.070;8.436;2023-04-03T04:37:34;101106.50;;;2.94;67.92
40730;BME280;26418;50.070;8.436;2023-04-03T04:40:01;101104.88;;;2.93;68.63
40730;BME280;26418;50.070;8.436;2023-04-03T04:42:27;101104.25;;;2.91;68.38
40730;BME280;26418;50.070;8.436;2023-04-03T04:44:53;101097.56;;;2.81;69.42
40730;BME280;26418;50.070;8.436;2023-04-03T04:47:18;101103.97;;;2.80;69.41
40730;BME280;26418;50.070;8.436;2023-04-03T04:49:44;101106.03;;;2.78;69.60
40730;BME280;26418;50.070;8.436;2023-04-03T04:52:10;101098.94;;;2.65;69.64
40730;BME280;26418;50.070;8.436;2023-04-03T04:54:36;101112.81;;;2.74;70.28
40730;BME280;26418;50.070;8.436;2023-04-03T04:57:01;101109.84;;;2.64;70.40
40730;BME280;26418;50.070;8.436;2023-04-03T04:59:27;101123.88;;;2.78;70.23
40730;BME280;26418;50.070;8.436;2023-04-03T05:01:53;101119.69;;;2.63;70.22
40730;BME280;26418;50.070;8.436;2023-04-03T05:04:18;101133.63;;;2.72;69.71
40730;BME280;26418;50.070;8.436;2023-04-03T05:06:44;101133.41;;;2.74;69.97
40730;BME280;26418;50.070;8.436;2023-04-03T05:09:09;101114.13;;;2.65;70.10
40730;BME280;26418;50.070;8.436;2023-04-03T05:11:35;101123.59;;;2.67;69.86
40730;BME280;26418;50.070;8.436;2023-04-03T05:14:01;101133.44;;;2.67;70.21
40730;BME280;26418;50.070;8.436;2023-04-03T05:16:47;101129.88;;;2.73;70.40
40730;BME280;26418;50.070;8.436;2023-04-03T05:19:13;101124.25;;;2.63;70.11
40730;BME280;26418;50.070;8.436;2023-04-03T05:22:09;101128.13;;;2.60;70.57
40730;BME280;26418;50.070;8.436;2023-04-03T05:24:36;101133.53;;;2.79;76.63
40730;BME280;26418;50.070;8.436;2023-04-03T05:27:05;101128.00;;;2.80;72.66
40730;BME280;26418;50.070;8.436;2023-04-03T05:29:30;101125.16;;;2.75;70.80
40730;BME280;26418;50.070;8.436;2023-04-03T05:31:56;101142.81;;;2.76;71.10
40730;BME280;26418;50.070;8.436;2023-04-03T05:34:22;101138.69;;;2.80;70.70
40730;BME280;26418;50.070;8.436;2023-04-03T05:36:48;101134.00;;;2.76;70.34
40730;BME280;26418;50.070;8.436;2023-04-03T05:39:34;101145.00;;;2.86;72.61
40730;BME280;26418;50.070;8.436;2023-04-03T05:42:06;101135.94;;;2.87;70.48
40730;BME280;26418;50.070;8.436;2023-04-03T05:44:50;101138.56;;;2.94;69.52
40730;BME280;26418;50.070;8.436;2023-04-03T05:47:17;101158.50;;;2.98;69.28
40730;BME280;26418;50.070;8.436;2023-04-03T05:49:45;101163.69;;;2.86;69.40
40730;BME280;26418;50.070;8.436;2023-04-03T05:53:01;101168.88;;;2.81;70.11
40730;BME280;26418;50.070;8.436;2023-04-03T05:55:36;101159.78;;;2.89;69.57
40730;BME280;26418;50.070;8.436;2023-04-03T05:58:18;101169.22;;;2.91;69.44
40730;BME280;26418;50.070;8.436;2023-04-03T06:00:48;101169.03;;;2.86;69.08
40730;BME280;26418;50.070;8.436;2023-04-03T06:03:17;101162.13;;;2.78;69.74
40730;BME280;26418;50.070;8.436;2023-04-03T06:05:43;101170.16;;;2.78;69.69
40730;BME280;26418;50.070;8.436;2023-04-03T06:08:08;101165.59;;;2.79;70.04
40730;BME280;26418;50.070;8.436;2023-04-03T06:10:35;101179.31;;;2.89;69.22
40730;BME280;26418;50.070;8.436;2023-04-03T06:13:21;101187.03;;;2.97;69.50
40730;BME280;26418;50.070;8.436;2023-04-03T06:16:43;101184.09;;;3.06;68.39
40730;BME280;26418;50.070;8.436;2023-04-03T06:19:38;101191.91;;;3.07;68.43
40730;BME280;26418;50.070;8.436;2023-04-03T06:26:40;101197.75;;;2.97;68.87
40730;BME280;26418;50.070;8.436;2023-04-03T06:30:22;101201.41;;;3.03;68.90
40730;BME280;26418;50.070;8.436;2023-04-03T06:32:50;101196.00;;;3.10;68.84
40730;BME280;26418;50.070;8.436;2023-04-03T06:35:44;101201.66;;;3.20;67.83
40730;BME280;26418;50.070;8.436;2023-04-03T06:38:48;101198.03;;;3.14;67.30
40730;BME280;26418;50.070;8.436;2023-04-03T06:42:00;101199.63;;;3.15;67.75
40730;BME280;26418;50.070;8.436;2023-04-03T06:45:05;101203.91;;;3.23;67.50
40730;BME280;26418;50.070;8.436;2023-04-03T06:47:49;101205.38;;;3.19;67.39
40730;BME280;26418;50.070;8.436;2023-04-03T06:50:29;101198.97;;;3.20;67.48
40730;BME280;26418;50.070;8.436;2023-04-03T06:53:04;101202.91;;;3.18;67.41
40730;BME280;26418;50.070;8.436;2023-04-03T06:56:28;101214.22;;;3.20;66.59
40730;BME280;26418;50.070;8.436;2023-04-03T06:59:37;101216.88;;;3.20;66.43
40730;BME280;26418;50.070;8.436;2023-04-03T07:02:47;101223.56;;;3.36;69.42
40730;BME280;26418;50.070;8.436;2023-04-03T07:05:26;101226.03;;;3.56;66.61
40730;BME280;26418;50.070;8.436;2023-04-03T07:08:18;101223.94;;;3.58;65.51
40730;BME280;26418;50.070;8.436;2023-04-03T07:10:45;101219.34;;;3.46;65.23
40730;BME280;26418;50.070;8.436;2023-04-03T07:13:39;101227.25;;;3.35;65.43
40730;BME280;26418;50.070;8.436;2023-04-03T07:16:40;101229.72;;;3.36;65.69
40730;BME280;26418;50.070;8.436;2023-04-03T07:19:06;101222.94;;;3.34;66.25
40730;BME280;26418;50.070;8.436;2023-04-03T07:21:33;101226.13;;;3.42;65.56
40730;BME280;26418;50.070;8.436;2023-04-03T07:23:59;101225.72;;;3.45;65.61
40730;BME280;26418;50.070;8.436;2023-04-03T07:26:25;101227.63;;;3.38;65.41
40730;BME280;26418;50.070;8.436;2023-04-03T07:28:51;101236.41;;;3.45;65.06
40730;BME280;26418;50.070;8.436;2023-04-03T07:31:17;101250.16;;;3.49;65.00
40730;BME280;26418;50.070;8.436;2023-04-03T07:33:45;101251.19;;;3.48;64.93
40730;BME280;26418;50.070;8.436;2023-04-03T07:36:15;101245.19;;;3.53;64.85
40730;BME280;26418;50.070;8.436;2023-04-03T07:38:41;101264.59;;;3.67;65.62
40730;BME280;26418;50.070;8.436;2023-04-03T07:41:12;101266.16;;;3.74;64.75
40730;BME280;26418;50.070;8.436;2023-04-03T07:43:39;101265.50;;;3.79;64.34
40730;BME280;26418;50.070;8.436;2023-04-03T07:46:06;101244.19;;;3.72;64.25
40730;BME280;26418;50.070;8.436;2023-04-03T07:48:31;101265.06;;;3.82;64.19
40730;BME280;26418;50.070;8.436;2023-04-03T07:51:01;101268.06;;;3.92;64.46
40730;BME280;26418;50.070;8.436;2023-04-03T07:53:27;101248.72;;;3.90;63.92
40730;BME280;26418;50.070;8.436;2023-04-03T07:55:53;101260.59;;;3.94;63.94
40730;BME280;26418;50.070;8.436;2023-04-03T07:58:21;101267.41;;;3.97;63.46
40730;BME280;26418;50.070;8.436;2023-04-03T08:00:47;101270.94;;;3.91;63.88
40730;BME280;26418;50.070;8.436;2023-04-03T08:03:14;101276.66;;;3.94;64.63
40730;BME280;26418;50.070;8.436;2023-04-03T08:05:43;101251.16;;;3.92;64.04
40730;BME280;26418;50.070;8.436;2023-04-03T08:08:11;101264.25;;;4.00;63.98
40730;BME280;26418;50.070;8.436;2023-04-03T08:10:37;101268.19;;;3.98;63.58
40730;BME280;26418;50.070;8.436;2023-04-03T08:13:03;101271.72;;;3.98;63.98
40730;BME280;26418;50.070;8.436;2023-04-03T08:15:30;101263.06;;;3.96;64.33
40730;BME280;26418;50.070;8.436;2023-04-03T08:17:58;101255.13;;;4.08;64.34
40730;BME280;26418;50.070;8.436;2023-04-03T08:20:27;101268.25;;;4.47;64.68
40730;BME280;26418;50.070;8.436;2023-04-03T08:23:15;101265.97;;;4.62;63.94
40730;BME280;26418;50.070;8.436;2023-04-03T08:25:42;101260.53;;;4.69;63.51
40730;BME280;26418;50.070;8.436;2023-04-03T08:28:13;101264.88;;;4.70;63.24
40730;BME280;26418;50.070;8.436;2023-04-03T08:30:40;101262.97;;;4.70;62.60
40730;BME280;26418;50.070;8.436;2023-04-03T08:33:09;101266.59;;;4.64;62.99
40730;BME280;26418;50.070;8.436;2023-04-03T08:35:47;101261.66;;;4.61;61.62
40730;BME280;26418;50.070;8.436;2023-04-03T08:38:37;101261.22;;;4.64;61.41
40730;BME280;26418;50.070;8.436;2023-04-03T08:41:34;101252.00;;;4.60;62.02
40730;BME280;26418;50.070;8.436;2023-04-03T08:44:39;101256.44;;;4.66;62.56
40730;BME280;26418;50.070;8.436;2023-04-03T08:48:12;101252.06;;;4.84;61.36
40730;BME280;26418;50.070;8.436;2023-04-03T08:51:46;101244.94;;;4.78;61.39
40730;BME280;26418;50.070;8.436;2023-04-03T08:58:33;101246.63;;;4.91;58.87
40730;BME280;26418;50.070;8.436;2023-04-03T09:01:37;101249.13;;;5.16;60.21
40730;BME280;26418;50.070;8.436;2023-04-03T09:04:47;101250.28;;;5.20;58.36
40730;BME280;26418;50.070;8.436;2023-04-03T09:11:09;101254.25;;;5.65;57.62
40730;BME280;26418;50.070;8.436;2023-04-03T09:21:22;101252.50;;;5.94;55.51
40730;BME280;26418;50.070;8.436;2023-04-03T09:24:32;101232.63;;;5.95;55.49
40730;BME280;26418;50.070;8.436;2023-04-03T09:27:48;101229.25;;;6.12;54.80
40730;BME280;26418;50.070;8.436;2023-04-03T09:38:22;101230.69;;;6.60;52.90
40730;BME280;26418;50.070;8.436;2023-04-03T09:45:04;101239.31;;;6.45;52.43
40730;BME280;26418;50.070;8.436;2023-04-03T09:48:52;101234.81;;;6.51;52.96
40730;BME280;26418;50.070;8.436;2023-04-03T09:51:33;101233.44;;;6.49;53.23
40730;BME280;26418;50.070;8.436;2023-04-03T09:55:26;101255.13;;;6.59;52.93
40730;BME280;26418;50.070;8.436;2023-04-03T09:58:49;101252.88;;;6.39;53.01
40730;BME280;26418;50.070;8.436;2023-04-03T10:05:36;101244.91;;;6.44;53.27
40730;BME280;26418;50.070;8.436;2023-04-03T10:12:16;101240.66;;;6.77;51.38
40730;BME280;26418;50.070;8.436;2023-04-03T10:15:25;101236.31;;;7.05;51.27
40730;BME280;26418;50.070;8.436;2023-04-03T10:18:47;101244.28;;;7.51;49.59
40730;BME280;26418;50.070;8.436;2023-04-03T10:25:17;101244.31;;;7.73;48.39
40730;BME280;26418;50.070;8.436;2023-04-03T10:35:02;101234.91;;;7.93;48.10
40730;BME280;26418;50.070;8.436;2023-04-03T10:38:33;101238.53;;;8.03;47.11
40730;BME280;26418;50.070;8.436;2023-04-03T10:42:02;101238.66;;;8.14;47.87
40730;BME280;26418;50.070;8.436;2023-04-03T10:51:45;101230.88;;;8.94;45.44
40730;BME280;26418;50.070;8.436;2023-04-03T10:57:01;101214.59;;;8.84;44.80
40730;BME280;26418;50.070;8.436;2023-04-03T11:02:39;101219.91;;;9.06;44.12
40730;BME280;26418;50.070;8.436;2023-04-03T11:05:37;101224.63;;;8.89;45.86
40730;BME280;26418;50.070;8.436;2023-04-03T11:08:57;101200.41;;;8.99;42.77
40730;BME280;26418;50.070;8.436;2023-04-03T11:11:00;101216.78;;;8.87;43.80
40730;BME280;26418;50.070;8.436;2023-04-03T11:13:37;101210.25;;;8.83;44.74
40730;BME280;26418;50.070;8.436;2023-04-03T11:16:04;101204.72;;;8.68;43.54
40730;BME280;26418;50.070;8.436;2023-04-03T11:18:52;101204.13;;;8.60;45.28
40730;BME280;26418;50.070;8.436;2023-04-03T11:21:44;101196.59;;;8.35;44.31
40730;BME280;26418;50.070;8.436;2023-04-03T11:24:17;101197.72;;;8.44;44.75
40730;BME280;26418;50.070;8.436;2023-04-03T11:26:53;101208.75;;;8.38;43.43
40730;BME280;26418;50.070;8.436;2023-04-03T11:29:34;101196.19;;;8.48;43.99
40730;BME280;26418;50.070;8.436;2023-04-03T11:34:44;101189.16;;;9.50;40.68
40730;BME280;26418;50.070;8.436;2023-04-03T11:37:19;101194.63;;;9.66;40.31
40730;BME280;26418;50.070;8.436;2023-04-03T11:39:56;101195.22;;;9.73;40.91
40730;BME280;26418;50.070;8.436;2023-04-03T11:42:29;101183.09;;;9.81;39.95
40730;BME280;26418;50.070;8.436;2023-04-03T11:53:49;101189.59;;;9.85;39.47
40730;BME280;26418;50.070;8.436;2023-04-03T11:56:32;101155.50;;;9.73;39.10
40730;BME280;26418;50.070;8.436;2023-04-03T12:02:36;101161.56;;;10.06;38.60
40730;BME280;26418;50.070;8.436;2023-04-03T12:05:34;101168.66;;;10.28;37.58
40730;BME280;26418;50.070;8.436;2023-04-03T12:11:46;101164.59;;;10.31;37.09
40730;BME280;26418;50.070;8.436;2023-04-03T12:17:42;101153.91;;;9.83;36.51
40730;BME280;26418;50.070;8.436;2023-04-03T12:23:35;101169.50;;;9.17;37.71
40730;BME280;26418;50.070;8.436;2023-04-03T12:26:21;101159.00;;;9.21;37.57
40730;BME280;26418;50.070;8.436;2023-04-03T12:28:51;101160.34;;;9.23;38.02
40730;BME280;26418;50.070;8.436;2023-04-03T12:31:19;101137.47;;;9.26;38.28
40730;BME280;26418;50.070;8.436;2023-04-03T12:37:37;101148.19;;;9.21;39.00
40730;BME280;26418;50.070;8.436;2023-04-03T12:48:57;101149.56;;;8.80;39.29
40730;BME280;26418;50.070;8.436;2023-04-03T12:52:03;101146.56;;;8.77;39.01
40730;BME280;26418;50.070;8.436;2023-04-03T12:55:15;101147.78;;;8.59;39.56
40730;BME280;26418;50.070;8.436;2023-04-03T13:01:41;101134.13;;;8.76;39.66
40730;BME280;26418;50.070;8.436;2023-04-03T13:04:12;101131.81;;;8.90;39.38
40730;BME280;26418;50.070;8.436;2023-04-03T13:06:44;101116.69;;;8.89;39.59
40730;BME280;26418;50.070;8.436;2023-04-03T13:09:24;101120.91;;;9.12;39.63
40730;BME280;26418;50.070;8.436;2023-04-03T13:11:52;101133.69;;;9.27;38.84
40730;BME280;26418;50.070;8.436;2023-04-03T13:14:22;101118.22;;;9.17;38.37
40730;BME280;26418;50.070;8.436;2023-04-03T13:17:11;101130.16;;;9.26;37.63
40730;BME280;26418;50.070;8.436;2023-04-03T13:20:17;101127.94;;;9.18;41.45
40730;BME280;26418;50.070;8.436;2023-04-03T13:22:57;101120.75;;;9.34;38.53
40730;BME280;26418;50.070;8.436;2023-04-03T13:25:30;101125.91;;;9.41;37.20
40730;BME280;26418;50.070;8.436;2023-04-03T13:27:58;101117.94;;;9.13;37.21
40730;BME280;26418;50.070;8.436;2023-04-03T13:30:30;101116.84;;;9.09;37.72
40730;BME280;26418;50.070;8.436;2023-04-03T13:32:58;101120.31;;;9.05;38.72
40730;BME280;26418;50.070;8.436;2023-04-03T13:35:40;101113.00;;;9.00;37.47
40730;BME280;26418;50.070;8.436;2023-04-03T13:38:22;101118.63;;;8.99;37.54
40730;BME280;26418;50.070;8.436;2023-04-03T13:40:52;101124.00;;;8.88;38.83
40730;BME280;26418;50.070;8.436;2023-04-03T13:43:30;101114.47;;;8.80;38.59
40730;BME280;26418;50.070;8.436;2023-04-03T13:46:00;101113.91;;;8.78;38.85
40730;BME280;26418;50.070;8.436;2023-04-03T13:51:27;101102.34;;;8.83;39.22
40730;BME280;26418;50.070;8.436;2023-04-03T13:53:59;101114.28;;;8.87;39.09
40730;BME280;26418;50.070;8.436;2023-04-03T13:56:36;101101.44;;;8.67;38.64
40730;BME280;26418;50.070;8.436;2023-04-03T14:07:10;101104.63;;;8.59;39.04
40730;BME280;26418;50.070;8.436;2023-04-03T14:09:35;101095.00;;;8.73;39.78
40730;BME280;26418;50.070;8.436;2023-04-03T14:12:07;101097.81;;;8.89;38.58
40730;BME280;26418;50.070;8.436;2023-04-03T14:14:35;101093.78;;;8.91;38.58
40730;BME280;26418;50.070;8.436;2023-04-03T14:17:09;101106.19;;;8.87;38.60
40730;BME280;26418;50.070;8.436;2023-04-03T14:19:35;101087.09;;;8.61;38.18
40730;BME280;26418;50.070;8.436;2023-04-03T14:22:11;101095.09;;;8.51;38.30
40730;BME280;26418;50.070;8.436;2023-04-03T14:24:37;101097.44;;;8.42;38.59
40730;BME280;26418;50.070;8.436;2023-04-03T14:27:11;101087.75;;;8.46;38.32
40730;BME280;26418;50.070;8.436;2023-04-03T14:29:40;101091.78;;;8.44;38.16
40730;BME280;26418;50.070;8.436;2023-04-03T14:32:05;101073.69;;;8.39;38.02
40730;BME280;26418;50.070;8.436;2023-04-03T14:34:31;101079.88;;;8.40;38.13
40730;BME280;26418;50.070;8.436;2023-04-03T14:36:56;101079.63;;;8.41;39.09
40730;BME280;26418;50.070;8.436;2023-04-03T14:39:22;101085.69;;;8.54;38.02
40730;BME280;26418;50.070;8.436;2023-04-03T14:41:47;101087.28;;;8.49;38.69
40730;BME280;26418;50.070;8.436;2023-04-03T14:44:13;101080.72;;;8.40;39.49
40730;BME280;26418;50.070;8.436;2023-04-03T14:46:42;101083.91;;;8.37;41.80
40730;BME280;26418;50.070;8.436;2023-04-03T14:49:14;101075.78;;;8.32;39.72
40730;BME280;26418;50.070;8.436;2023-04-03T14:51:41;101065.97;;;8.21;39.04
40730;BME280;26418;50.070;8.436;2023-04-03T14:54:13;101056.25;;;8.19;39.31
40730;BME280;26418;50.070;8.436;2023-04-03T14:56:39;101082.50;;;8.29;40.36
40730;BME280;26418;50.070;8.436;2023-04-03T14:59:09;101059.81;;;8.25;40.93
40730;BME280;26418;50.070;8.436;2023-04-03T15:01:36;101058.28;;;8.34;40.69
40730;BME280;26418;50.070;8.436;2023-04-03T15:04:01;101061.41;;;8.54;39.15
40730;BME280;26418;50.070;8.436;2023-04-03T15:06:30;101064.94;;;8.54;38.61
40730;BME280;26418;50.070;8.436;2023-04-03T15:08:56;101051.06;;;8.40;38.20
40730;BME280;26418;50.070;8.436;2023-04-03T15:11:22;101080.53;;;8.47;38.95
40730;BME280;26418;50.070;8.436;2023-04-03T15:13:47;101073.69;;;8.39;37.84
40730;BME280;26418;50.070;8.436;2023-04-03T15:16:16;101077.72;;;8.37;38.04
40730;BME280;26418;50.070;8.436;2023-04-03T15:18:42;101067.41;;;8.28;37.60
40730;BME280;26418;50.070;8.436;2023-04-03T15:21:08;101059.41;;;8.11;38.84
40730;BME280;26418;50.070;8.436;2023-04-03T15:23:33;101062.38;;;8.10;39.00
40730;BME280;26418;50.070;8.436;2023-04-03T15:25:59;101064.00;;;8.11;39.29
40730;BME280;26418;50.070;8.436;2023-04-03T15:28:34;101063.44;;;8.09;38.12
40730;BME280;26418;50.070;8.436;2023-04-03T15:31:00;101070.00;;;8.18;38.30
40730;BME280;26418;50.070;8.436;2023-04-03T15:33:27;101066.56;;;8.28;37.68
40730;BME280;26418;50.070;8.436;2023-04-03T15:35:52;101064.03;;;8.16;37.75
40730;BME280;26418;50.070;8.436;2023-04-03T15:38:18;101066.75;;;8.16;37.69
40730;BME280;26418;50.070;8.436;2023-04-03T15:40:47;101060.50;;;8.10;37.83